sensor_id;sensor_type;location;lat;lon;timestamp;temperature;humidity
46590;DHT22;32313;48.722;9.362;2022-11-15T00:00:25;4.50;99.90
46590;DHT22;32313;48.722;9.362;2022-11-15T00:03:12;4.50;99.90
46590;DHT22;32313;48.722;9.362;2022-11-15T00:06:02;4.50;99.90
46590;DHT22;32313;48.722;9.362;2022-11-15T00:08:47;4.50;99.90
46590;DHT22;32313;48.722;9.362;2022-11-15T00:11:31;4.60;99.90
46590;DHT22;32313;48.722;9.362;2022-11-15T00:14:15;4.50;99.90
46590;DHT22;32313;48.722;9.362;2022-11-15T00:16:59;4.50;99.90
46590;DHT22;32313;48.722;9.362;2022-11-15T00:19:43;4.50;99.90
46590;DHT22;32313;48.722;9.362;2022-11-15T00:22:33;4.50;99.90
46590;DHT22;32313;48.722;9.362;2022-11-15T00:25:17;4.50;99.90
46590;DHT22;32313;48.722;9.362;2022-11-15T00:28:01;4.50;99.90
46590;DHT22;32313;48.722;9.362;2022-11-15T00:30:45;4.60;99.90
46590;DHT22;32313;48.722;9.362;2022-11-15T00:33:30;4.60;99.90
46590;DHT22;32313;48.722;9.362;2022-11-15T00:36:14;4.50;99.90
46590;DHT22;32313;48.722;9.362;2022-11-15T00:38:58;4.50;99.90
46590;DHT22;32313;48.722;9.362;2022-11-15T00:41:43;4.50;99.90
46590;DHT22;32313;48.722;9.362;2022-11-15T00:44:27;4.50;99.90
46590;DHT22;32313;48.722;9.362;2022-11-15T00:47:11;4.50;99.90
46590;DHT22;32313;48.722;9.362;2022-11-15T00:49:55;4.50;99.90
46590;DHT22;32313;48.722;9.362;2022-11-15T00:52:39;4.40;99.90
46590;DHT22;32313;48.722;9.362;2022-11-15T00:55:23;4.30;99.90
46590;DHT22;32313;48.722;9.362;2022-11-15T00:58:07;4.30;99.90
46590;DHT22;32313;48.722;9.362;2022-11-15T01:00:52;4.20;99.90
46590;DHT22;32313;48.722;9.362;2022-11-15T01:03:37;4.10;99.90
46590;DHT22;32313;48.722;9.362;2022-11-15T01:06:22;4.00;99.90
46590;DHT22;32313;48.722;9.362;2022-11-15T01:09:06;3.90;99.90
46590;DHT22;32313;48.722;9.362;2022-11-15T01:11:50;3.80;99.90
46590;DHT22;32313;48.722;9.362;2022-11-15T01:18:21;3.60;99.90
46590;DHT22;32313;48.722;9.362;2022-11-15T01:21:12;3.50;99.90
46590;DHT22;32313;48.722;9.362;2022-11-15T01:23:57;3.40;99.90
46590;DHT22;32313;48.722;9.362;2022-11-15T01:26:41;3.40;99.90
46590;DHT22;32313;48.722;9.362;2022-11-15T01:29:25;3.40;99.90
46590;DHT22;32313;48.722;9.362;2022-11-15T01:32:09;3.40;99.90
46590;DHT22;32313;48.722;9.362;2022-11-15T01:34:53;3.50;99.90
46590;DHT22;32313;48.722;9.362;2022-11-15T01:37:37;3.40;99.90
46590;DHT22;32313;48.722;9.362;2022-11-15T01:40:22;3.40;99.90
46590;DHT22;32313;48.722;9.362;2022-11-15T01:43:39;3.40;99.90
46590;DHT22;32313;48.722;9.362;2022-11-15T01:49:17;3.30;99.90
46590;DHT22;32313;48.722;9.362;2022-11-15T01:52:06;3.30;99.90
46590;DHT22;32313;48.722;9.362;2022-11-15T01:55:00;3.20;99.90
46590;DHT22;32313;48.722;9.362;2022-11-15T01:57:48;3.10;99.90
46590;DHT22;32313;48.722;9.362;2022-11-15T02:00:33;3.00;99.90
46590;DHT22;32313;48.722;9.362;2022-11-15T02:03:19;2.90;99.90
46590;DHT22;32313;48.722;9.362;2022-11-15T02:06:05;2.90;99.90
46590;DHT22;32313;48.722;9.362;2022-11-15T02:08:49;2.80;99.90
46590;DHT22;32313;48.722;9.362;2022-11-15T02:11:35;2.70;99.90
46590;DHT22;32313;48.722;9.362;2022-11-15T02:14:20;2.70;99.90
46590;DHT22;32313;48.722;9.362;2022-11-15T02:29:42;2.50;99.90
46590;DHT22;32313;48.722;9.362;2022-11-15T02:32:44;2.40;99.90
46590;DHT22;32313;48.722;9.362;2022-11-15T02:42:02;2.30;99.90
46590;DHT22;32313;48.722;9.362;2022-11-15T02:44:49;2.30;99.90
46590;DHT22;32313;48.722;9.362;2022-11-15T02:47:41;2.30;99.90
46590;DHT22;32313;48.722;9.362;2022-11-15T02:50:29;2.20;99.90
46590;DHT22;32313;48.722;9.362;2022-11-15T02:53:14;2.20;99.90
46590;DHT22;32313;48.722;9.362;2022-11-15T02:55:59;2.30;99.90
46590;DHT22;32313;48.722;9.362;2022-11-15T02:58:58;2.40;99.90
46590;DHT22;32313;48.722;9.362;2022-11-15T03:01:51;2.40;99.90
46590;DHT22;32313;48.722;9.362;2022-11-15T03:07:54;2.40;99.90
46590;DHT22;32313;48.722;9.362;2022-11-15T03:11:03;2.50;99.90
46590;DHT22;32313;48.722;9.362;2022-11-15T03:14:19;2.70;99.90
46590;DHT22;32313;48.722;9.362;2022-11-15T03:17:16;2.70;99.90
46590;DHT22;32313;48.722;9.362;2022-11-15T03:20:05;2.80;99.90
46590;DHT22;32313;48.722;9.362;2022-11-15T03:22:50;2.70;99.90
46590;DHT22;32313;48.722;9.362;2022-11-15T03:25:41;2.70;99.90
46590;DHT22;32313;48.722;9.362;2022-11-15T03:28:34;2.70;99.90
46590;DHT22;32313;48.722;9.362;2022-11-15T03:31:21;2.80;99.90
46590;DHT22;32313;48.722;9.362;2022-11-15T03:34:29;2.70;99.90
46590;DHT22;32313;48.722;9.362;2022-11-15T03:37:17;2.70;99.90
46590;DHT22;32313;48.722;9.362;2022-11-15T03:40:02;2.70;99.90
46590;DHT22;32313;48.722;9.362;2022-11-15T03:46:00;2.60;99.90
46590;DHT22;32313;48.722;9.362;2022-11-15T03:49:21;2.60;99.90
46590;DHT22;32313;48.722;9.362;2022-11-15T03:52:07;2.70;99.90
46590;DHT22;32313;48.722;9.362;2022-11-15T03:54:54;2.70;99.90
46590;DHT22;32313;48.722;9.362;2022-11-15T03:57:38;2.80;99.90
46590;DHT22;32313;48.722;9.362;2022-11-15T04:00:22;2.80;99.90
46590;DHT22;32313;48.722;9.362;2022-11-15T04:03:07;2.80;99.90
46590;DHT22;32313;48.722;9.362;2022-11-15T04:05:52;2.90;99.90
46590;DHT22;32313;48.722;9.362;2022-11-15T04:08:36;2.90;99.90
46590;DHT22;32313;48.722;9.362;2022-11-15T04:11:20;2.90;99.90
46590;DHT22;32313;48.722;9.362;2022-11-15T04:14:04;2.90;99.90
46590;DHT22;32313;48.722;9.362;2022-11-15T04:16:48;2.80;99.90
46590;DHT22;32313;48.722;9.362;2022-11-15T04:19:32;2.80;99.90
46590;DHT22;32313;48.722;9.362;2022-11-15T04:22:35;2.70;99.90
46590;DHT22;32313;48.722;9.362;2022-11-15T04:25:38;2.60;99.90
46590;DHT22;32313;48.722;9.362;2022-11-15T04:28:23;2.50;99.90
46590;DHT22;32313;48.722;9.362;2022-11-15T04:31:07;2.40;99.90
46590;DHT22;32313;48.722;9.362;2022-11-15T04:33:51;2.30;99.90
46590;DHT22;32313;48.722;9.362;2022-11-15T04:36:36;2.20;99.90
46590;DHT22;32313;48.722;9.362;2022-11-15T04:39:40;2.10;99.90
46590;DHT22;32313;48.722;9.362;2022-11-15T04:42:24;2.10;99.90
46590;DHT22;32313;48.722;9.362;2022-11-15T04:45:09;2.00;99.90
46590;DHT22;32313;48.722;9.362;2022-11-15T04:47:53;2.00;99.90
46590;DHT22;32313;48.722;9.362;2022-11-15T04:50:37;2.00;99.90
46590;DHT22;32313;48.722;9.362;2022-11-15T04:53:21;2.00;99.90
46590;DHT22;32313;48.722;9.362;2022-11-15T04:56:05;2.10;99.90
46590;DHT22;32313;48.722;9.362;2022-11-15T04:58:51;2.10;99.90
46590;DHT22;32313;48.722;9.362;2022-11-15T05:01:35;2.10;99.90
46590;DHT22;32313;48.722;9.362;2022-11-15T05:04:19;2.10;99.90
46590;DHT22;32313;48.722;9.362;2022-11-15T05:07:03;2.00;99.90
46590;DHT22;32313;48.722;9.362;2022-11-15T05:09:50;2.00;99.90
46590;DHT22;32313;48.722;9.362;2022-11-15T05:12:35;2.00;99.90
46590;DHT22;32313;48.722;9.362;2022-11-15T05:15:20;2.00;99.90
46590;DHT22;32313;48.722;9.362;2022-11-15T05:18:04;2.00;99.90
46590;DHT22;32313;48.722;9.362;2022-11-15T05:20:48;2.00;99.90
46590;DHT22;32313;48.722;9.362;2022-11-15T05:23:32;2.00;99.90
46590;DHT22;32313;48.722;9.362;2022-11-15T05:26:17;1.90;99.90
46590;DHT22;32313;48.722;9.362;2022-11-15T05:29:02;1.90;99.90
46590;DHT22;32313;48.722;9.362;2022-11-15T05:31:47;1.90;99.90
46590;DHT22;32313;48.722;9.362;2022-11-15T05:34:32;1.80;99.90
46590;DHT22;32313;48.722;9.362;2022-11-15T05:37:16;1.90;99.90
46590;DHT22;32313;48.722;9.362;2022-11-15T05:40:01;2.00;99.90
46590;DHT22;32313;48.722;9.362;2022-11-15T05:42:46;2.00;99.90
46590;DHT22;32313;48.722;9.362;2022-11-15T05:45:32;2.00;99.90
46590;DHT22;32313;48.722;9.362;2022-11-15T05:48:18;2.00;99.90
46590;DHT22;32313;48.722;9.362;2022-11-15T05:51:03;2.00;99.90
46590;DHT22;32313;48.722;9.362;2022-11-15T05:53:49;2.00;99.90
46590;DHT22;32313;48.722;9.362;2022-11-15T05:56:34;2.00;99.90
46590;DHT22;32313;48.722;9.362;2022-11-15T05:59:23;2.00;99.90
46590;DHT22;32313;48.722;9.362;2022-11-15T06:02:08;2.00;99.90
46590;DHT22;32313;48.722;9.362;2022-11-15T06:04:52;2.00;99.90
46590;DHT22;32313;48.722;9.362;2022-11-15T06:07:36;1.90;99.90
46590;DHT22;32313;48.722;9.362;2022-11-15T06:10:21;1.90;99.90
46590;DHT22;32313;48.722;9.362;2022-11-15T06:13:05;1.90;99.90
46590;DHT22;32313;48.722;9.362;2022-11-15T06:15:49;2.00;99.90
46590;DHT22;32313;48.722;9.362;2022-11-15T06:18:34;2.00;99.90
46590;DHT22;32313;48.722;9.362;2022-11-15T06:21:18;1.90;99.90
46590;DHT22;32313;48.722;9.362;2022-11-15T06:24:03;1.80;99.90
46590;DHT22;32313;48.722;9.362;2022-11-15T06:26:47;1.60;99.90
46590;DHT22;32313;48.722;9.362;2022-11-15T06:29:32;1.60;99.90
46590;DHT22;32313;48.722;9.362;2022-11-15T06:32:16;1.60;99.90
46590;DHT22;32313;48.722;9.362;2022-11-15T06:35:00;1.60;99.90
46590;DHT22;32313;48.722;9.362;2022-11-15T06:37:44;1.60;99.90
46590;DHT22;32313;48.722;9.362;2022-11-15T06:40:28;1.60;99.90
46590;DHT22;32313;48.722;9.362;2022-11-15T06:43:12;1.60;99.90
46590;DHT22;32313;48.722;9.362;2022-11-15T06:46:01;1.50;99.90
46590;DHT22;32313;48.722;9.362;2022-11-15T06:48:45;1.60;99.90
46590;DHT22;32313;48.722;9.362;2022-11-15T06:51:30;1.60;99.90
46590;DHT22;32313;48.722;9.362;2022-11-15T06:54:14;1.70;99.90
46590;DHT22;32313;48.722;9.362;2022-11-15T06:56:58;1.80;99.90
46590;DHT22;32313;48.722;9.362;2022-11-15T06:59:45;1.70;99.90
46590;DHT22;32313;48.722;9.362;2022-11-15T07:02:29;1.80;99.90
46590;DHT22;32313;48.722;9.362;2022-11-15T07:05:14;1.90;99.90
46590;DHT22;32313;48.722;9.362;2022-11-15T07:07:58;1.90;99.90
46590;DHT22;32313;48.722;9.362;2022-11-15T07:10:43;2.00;99.90
46590;DHT22;32313;48.722;9.362;2022-11-15T07:13:28;2.10;99.90
46590;DHT22;32313;48.722;9.362;2022-11-15T07:16:12;2.10;99.90
46590;DHT22;32313;48.722;9.362;2022-11-15T07:18:57;2.10;99.90
46590;DHT22;32313;48.722;9.362;2022-11-15T07:21:41;2.10;99.90
46590;DHT22;32313;48.722;9.362;2022-11-15T07:24:26;2.30;99.90
46590;DHT22;32313;48.722;9.362;2022-11-15T07:27:10;2.40;99.90
46590;DHT22;32313;48.722;9.362;2022-11-15T07:29:54;2.50;99.90
46590;DHT22;32313;48.722;9.362;2022-11-15T07:32:38;2.60;99.90
46590;DHT22;32313;48.722;9.362;2022-11-15T07:35:23;2.70;99.90
46590;DHT22;32313;48.722;9.362;2022-11-15T07:38:07;2.80;99.90
46590;DHT22;32313;48.722;9.362;2022-11-15T07:41:00;2.90;99.90
46590;DHT22;32313;48.722;9.362;2022-11-15T07:43:44;3.00;99.90
46590;DHT22;32313;48.722;9.362;2022-11-15T07:46:28;3.00;99.90
46590;DHT22;32313;48.722;9.362;2022-11-15T07:49:12;3.10;99.90
46590;DHT22;32313;48.722;9.362;2022-11-15T07:51:56;3.20;99.90
46590;DHT22;32313;48.722;9.362;2022-11-15T07:54:41;3.20;99.90
46590;DHT22;32313;48.722;9.362;2022-11-15T07:57:25;3.40;99.90
46590;DHT22;32313;48.722;9.362;2022-11-15T08:00:10;3.60;99.90
46590;DHT22;32313;48.722;9.362;2022-11-15T08:03:08;3.80;99.90
46590;DHT22;32313;48.722;9.362;2022-11-15T08:05:58;4.10;99.90
46590;DHT22;32313;48.722;9.362;2022-11-15T08:08:42;4.40;99.90
46590;DHT22;32313;48.722;9.362;2022-11-15T08:11:26;4.60;99.90
46590;DHT22;32313;48.722;9.362;2022-11-15T08:14:10;4.80;99.90
46590;DHT22;32313;48.722;9.362;2022-11-15T08:16:55;5.00;99.90
46590;DHT22;32313;48.722;9.362;2022-11-15T08:19:39;5.50;99.90
46590;DHT22;32313;48.722;9.362;2022-11-15T08:22:23;6.50;99.90
46590;DHT22;32313;48.722;9.362;2022-11-15T08:25:07;6.60;99.90
46590;DHT22;32313;48.722;9.362;2022-11-15T08:27:57;6.70;99.90
46590;DHT22;32313;48.722;9.362;2022-11-15T08:30:44;7.10;99.90
46590;DHT22;32313;48.722;9.362;2022-11-15T08:33:30;7.60;99.90
46590;DHT22;32313;48.722;9.362;2022-11-15T08:36:16;8.20;99.90
46590;DHT22;32313;48.722;9.362;2022-11-15T08:39:00;8.50;99.90
46590;DHT22;32313;48.722;9.362;2022-11-15T08:41:44;8.50;99.90
46590;DHT22;32313;48.722;9.362;2022-11-15T08:44:28;8.30;99.90
46590;DHT22;32313;48.722;9.362;2022-11-15T08:47:12;8.10;99.90
46590;DHT22;32313;48.722;9.362;2022-11-15T08:49:58;8.10;99.90
46590;DHT22;32313;48.722;9.362;2022-11-15T08:52:42;8.10;99.90
46590;DHT22;32313;48.722;9.362;2022-11-15T08:55:26;8.40;99.90
46590;DHT22;32313;48.722;9.362;2022-11-15T08:58:10;9.00;99.90
46590;DHT22;32313;48.722;9.362;2022-11-15T09:00:55;9.70;99.90
46590;DHT22;32313;48.722;9.362;2022-11-15T09:03:40;10.60;99.90
46590;DHT22;32313;48.722;9.362;2022-11-15T09:06:27;11.10;99.90
46590;DHT22;32313;48.722;9.362;2022-11-15T09:09:11;11.90;99.90
46590;DHT22;32313;48.722;9.362;2022-11-15T09:11:55;12.20;99.90
46590;DHT22;32313;48.722;9.362;2022-11-15T09:14:39;12.10;99.90
46590;DHT22;32313;48.722;9.362;2022-11-15T09:17:23;12.20;99.90
46590;DHT22;32313;48.722;9.362;2022-11-15T09:20:08;11.90;99.90
46590;DHT22;32313;48.722;9.362;2022-11-15T09:22:53;11.30;99.90
46590;DHT22;32313;48.722;9.362;2022-11-15T09:25:37;10.80;99.90
46590;DHT22;32313;48.722;9.362;2022-11-15T09:28:21;10.50;99.90
46590;DHT22;32313;48.722;9.362;2022-11-15T09:31:05;10.70;99.90
46590;DHT22;32313;48.722;9.362;2022-11-15T09:33:50;11.20;99.90
46590;DHT22;32313;48.722;9.362;2022-11-15T09:36:34;11.40;99.90
46590;DHT22;32313;48.722;9.362;2022-11-15T09:39:19;11.40;99.90
46590;DHT22;32313;48.722;9.362;2022-11-15T09:48:55;11.90;99.90
46590;DHT22;32313;48.722;9.362;2022-11-15T09:51:52;12.30;99.90
46590;DHT22;32313;48.722;9.362;2022-11-15T09:54:39;12.10;99.90
46590;DHT22;32313;48.722;9.362;2022-11-15T10:00:09;13.50;99.90
46590;DHT22;32313;48.722;9.362;2022-11-15T10:05:21;14.10;99.90
46590;DHT22;32313;48.722;9.362;2022-11-15T10:10:45;13.90;99.90
46590;DHT22;32313;48.722;9.362;2022-11-15T10:13:25;14.40;99.90
46590;DHT22;32313;48.722;9.362;2022-11-15T10:15:53;15.30;99.90
46590;DHT22;32313;48.722;9.362;2022-11-15T10:18:35;15.40;99.90
46590;DHT22;32313;48.722;9.362;2022-11-15T10:21:27;15.00;99.90
46590;DHT22;32313;48.722;9.362;2022-11-15T10:23:55;14.60;99.90
46590;DHT22;32313;48.722;9.362;2022-11-15T10:26:21;14.50;99.90
46590;DHT22;32313;48.722;9.362;2022-11-15T10:28:46;14.70;99.90
46590;DHT22;32313;48.722;9.362;2022-11-15T10:31:27;14.60;99.90
46590;DHT22;32313;48.722;9.362;2022-11-15T10:34:17;14.50;99.90
46590;DHT22;32313;48.722;9.362;2022-11-15T10:36:45;14.70;99.90
46590;DHT22;32313;48.722;9.362;2022-11-15T10:39:13;14.50;99.90
46590;DHT22;32313;48.722;9.362;2022-11-15T10:41:40;14.30;99.90
46590;DHT22;32313;48.722;9.362;2022-11-15T10:46:34;14.00;99.90
46590;DHT22;32313;48.722;9.362;2022-11-15T10:49:31;14.10;99.90
46590;DHT22;32313;48.722;9.362;2022-11-15T10:54:42;14.00;99.90
46590;DHT22;32313;48.722;9.362;2022-11-15T10:57:16;13.90;99.90
46590;DHT22;32313;48.722;9.362;2022-11-15T10:59:48;13.90;99.90
46590;DHT22;32313;48.722;9.362;2022-11-15T11:02:35;13.90;99.90
46590;DHT22;32313;48.722;9.362;2022-11-15T11:05:05;14.00;99.90
46590;DHT22;32313;48.722;9.362;2022-11-15T11:07:34;14.00;99.90
46590;DHT22;32313;48.722;9.362;2022-11-15T11:10:02;13.90;99.90
46590;DHT22;32313;48.722;9.362;2022-11-15T11:12:31;13.80;99.90
46590;DHT22;32313;48.722;9.362;2022-11-15T11:14:58;13.70;99.90
46590;DHT22;32313;48.722;9.362;2022-11-15T11:17:45;13.70;99.90
46590;DHT22;32313;48.722;9.362;2022-11-15T11:20:36;13.70;99.90
46590;DHT22;32313;48.722;9.362;2022-11-15T11:26:08;13.60;99.90
46590;DHT22;32313;48.722;9.362;2022-11-15T11:28:54;13.50;99.90
46590;DHT22;32313;48.722;9.362;2022-11-15T11:32:01;13.60;99.90
46590;DHT22;32313;48.722;9.362;2022-11-15T11:34:58;13.60;99.90
46590;DHT22;32313;48.722;9.362;2022-11-15T11:40:39;13.80;99.90
46590;DHT22;32313;48.722;9.362;2022-11-15T11:43:30;13.90;99.90
46590;DHT22;32313;48.722;9.362;2022-11-15T11:48:58;13.90;99.90
46590;DHT22;32313;48.722;9.362;2022-11-15T11:54:36;14.00;99.90
46590;DHT22;32313;48.722;9.362;2022-11-15T11:57:09;13.90;99.90
46590;DHT22;32313;48.722;9.362;2022-11-15T11:59:55;14.00;99.90
46590;DHT22;32313;48.722;9.362;2022-11-15T12:02:31;14.20;99.90
46590;DHT22;32313;48.722;9.362;2022-11-15T12:05:26;14.40;99.90
46590;DHT22;32313;48.722;9.362;2022-11-15T12:07:59;14.50;99.90
46590;DHT22;32313;48.722;9.362;2022-11-15T12:10:32;14.40;99.90
46590;DHT22;32313;48.722;9.362;2022-11-15T12:15:36;14.50;99.90
46590;DHT22;32313;48.722;9.362;2022-11-15T12:18:02;14.60;99.90
46590;DHT22;32313;48.722;9.362;2022-11-15T12:20:34;14.50;99.90
46590;DHT22;32313;48.722;9.362;2022-11-15T12:23:14;14.50;99.90
46590;DHT22;32313;48.722;9.362;2022-11-15T12:28:25;14.40;99.90
46590;DHT22;32313;48.722;9.362;2022-11-15T12:33:34;14.10;99.90
46590;DHT22;32313;48.722;9.362;2022-11-15T12:36:03;14.10;99.90
46590;DHT22;32313;48.722;9.362;2022-11-15T12:39:04;14.00;99.90
46590;DHT22;32313;48.722;9.362;2022-11-15T12:41:35;14.00;99.90
46590;DHT22;32313;48.722;9.362;2022-11-15T12:44:02;14.00;99.90
46590;DHT22;32313;48.722;9.362;2022-11-15T12:48:59;13.70;99.90
46590;DHT22;32313;48.722;9.362;2022-11-15T12:52:07;13.60;99.90
46590;DHT22;32313;48.722;9.362;2022-11-15T12:59:58;13.50;99.90
46590;DHT22;32313;48.722;9.362;2022-11-15T13:02:35;13.50;99.90
46590;DHT22;32313;48.722;9.362;2022-11-15T13:17:51;13.10;99.90
46590;DHT22;32313;48.722;9.362;2022-11-15T13:20:36;13.20;99.90
46590;DHT22;32313;48.722;9.362;2022-11-15T13:30:41;13.20;99.90
46590;DHT22;32313;48.722;9.362;2022-11-15T13:33:17;13.20;99.90
46590;DHT22;32313;48.722;9.362;2022-11-15T13:35:47;13.20;99.90
46590;DHT22;32313;48.722;9.362;2022-11-15T13:38:25;13.20;99.90
46590;DHT22;32313;48.722;9.362;2022-11-15T13:40:52;13.20;99.90
46590;DHT22;32313;48.722;9.362;2022-11-15T13:48:30;13.30;99.90
46590;DHT22;32313;48.722;9.362;2022-11-15T13:50:56;13.30;99.90
46590;DHT22;32313;48.722;9.362;2022-11-15T13:53:23;13.30;99.90
46590;DHT22;32313;48.722;9.362;2022-11-15T13:55:49;13.30;99.90
46590;DHT22;32313;48.722;9.362;2022-11-15T13:58:15;13.20;99.90
46590;DHT22;32313;48.722;9.362;2022-11-15T14:00:43;13.20;99.90
46590;DHT22;32313;48.722;9.362;2022-11-15T14:05:46;13.20;99.90
46590;DHT22;32313;48.722;9.362;2022-11-15T14:08:25;13.20;99.90
46590;DHT22;32313;48.722;9.362;2022-11-15T14:13:35;13.10;99.90
46590;DHT22;32313;48.722;9.362;2022-11-15T14:16:18;13.00;99.90
46590;DHT22;32313;48.722;9.362;2022-11-15T14:18:46;12.90;99.90
46590;DHT22;32313;48.722;9.362;2022-11-15T14:21:12;12.80;99.90
46590;DHT22;32313;48.722;9.362;2022-11-15T14:23:37;12.60;99.90
46590;DHT22;32313;48.722;9.362;2022-11-15T14:26:03;12.50;99.90
46590;DHT22;32313;48.722;9.362;2022-11-15T14:28:33;12.40;99.90
46590;DHT22;32313;48.722;9.362;2022-11-15T14:31:10;12.20;99.90
46590;DHT22;32313;48.722;9.362;2022-11-15T14:33:37;12.10;99.90
46590;DHT22;32313;48.722;9.362;2022-11-15T14:36:16;12.00;99.90
46590;DHT22;32313;48.722;9.362;2022-11-15T14:38:42;11.80;99.90
46590;DHT22;32313;48.722;9.362;2022-11-15T14:41:18;11.70;99.90
46590;DHT22;32313;48.722;9.362;2022-11-15T14:43:44;11.70;99.90
46590;DHT22;32313;48.722;9.362;2022-11-15T14:46:10;11.60;99.90
46590;DHT22;32313;48.722;9.362;2022-11-15T14:48:35;11.50;99.90
46590;DHT22;32313;48.722;9.362;2022-11-15T14:51:02;11.40;99.90
46590;DHT22;32313;48.722;9.362;2022-11-15T14:53:27;11.40;99.90
46590;DHT22;32313;48.722;9.362;2022-11-15T14:55:53;11.30;99.90
46590;DHT22;32313;48.722;9.362;2022-11-15T14:58:19;11.30;99.90
46590;DHT22;32313;48.722;9.362;2022-11-15T15:00:44;11.20;99.90
46590;DHT22;32313;48.722;9.362;2022-11-15T15:03:10;11.10;99.90
46590;DHT22;32313;48.722;9.362;2022-11-15T15:05:42;11.10;99.90
46590;DHT22;32313;48.722;9.362;2022-11-15T15:08:08;11.00;99.90
46590;DHT22;32313;48.722;9.362;2022-11-15T15:10:43;11.00;99.90
46590;DHT22;32313;48.722;9.362;2022-11-15T15:13:21;11.00;99.90
46590;DHT22;32313;48.722;9.362;2022-11-15T15:15:48;10.90;99.90
46590;DHT22;32313;48.722;9.362;2022-11-15T15:18:15;10.90;99.90
46590;DHT22;32313;48.722;9.362;2022-11-15T15:20:42;10.80;99.90
46590;DHT22;32313;48.722;9.362;2022-11-15T15:23:15;10.70;99.90
46590;DHT22;32313;48.722;9.362;2022-11-15T15:25:41;10.60;99.90
46590;DHT22;32313;48.722;9.362;2022-11-15T15:28:07;10.60;99.90
46590;DHT22;32313;48.722;9.362;2022-11-15T15:30:33;10.50;99.90
46590;DHT22;32313;48.722;9.362;2022-11-15T15:32:58;10.50;99.90
46590;DHT22;32313;48.722;9.362;2022-11-15T15:35:29;10.40;99.90
46590;DHT22;32313;48.722;9.362;2022-11-15T15:37:55;10.40;99.90
46590;DHT22;32313;48.722;9.362;2022-11-15T15:40:22;10.30;99.90
46590;DHT22;32313;48.722;9.362;2022-11-15T15:42:49;10.30;99.90
46590;DHT22;32313;48.722;9.362;2022-11-15T15:45:15;10.30;99.90
46590;DHT22;32313;48.722;9.362;2022-11-15T15:47:42;10.20;99.90
46590;DHT22;32313;48.722;9.362;2022-11-15T15:50:26;10.10;99.90
46590;DHT22;32313;48.722;9.362;2022-11-15T15:52:55;10.00;99.90
46590;DHT22;32313;48.722;9.362;2022-11-15T15:55:21;9.90;99.90
46590;DHT22;32313;48.722;9.362;2022-11-15T15:57:48;9.80;99.90
46590;DHT22;32313;48.722;9.362;2022-11-15T16:00:15;9.80;99.90
46590;DHT22;32313;48.722;9.362;2022-11-15T16:02:41;9.70;99.90
46590;DHT22;32313;48.722;9.362;2022-11-15T16:05:08;9.70;99.90
46590;DHT22;32313;48.722;9.362;2022-11-15T16:07:34;9.60;99.90
46590;DHT22;32313;48.722;9.362;2022-11-15T16:10:00;9.60;99.90
46590;DHT22;32313;48.722;9.362;2022-11-15T16:12:33;9.50;99.90
46590;DHT22;32313;48.722;9.362;2022-11-15T16:14:59;9.50;99.90
46590;DHT22;32313;48.722;9.362;2022-11-15T16:17:28;9.50;99.90
46590;DHT22;32313;48.722;9.362;2022-11-15T16:19:55;9.40;99.90
46590;DHT22;32313;48.722;9.362;2022-11-15T16:22:21;9.40;99.90
46590;DHT22;32313;48.722;9.362;2022-11-15T16:24:47;9.30;99.90
46590;DHT22;32313;48.722;9.362;2022-11-15T16:27:18;9.30;99.90
46590;DHT22;32313;48.722;9.362;2022-11-15T16:29:45;9.30;99.90
46590;DHT22;32313;48.722;9.362;2022-11-15T16:32:11;9.30;99.90
46590;DHT22;32313;48.722;9.362;2022-11-15T16:34:37;9.30;99.90
46590;DHT22;32313;48.722;9.362;2022-11-15T16:37:03;9.20;99.90
46590;DHT22;32313;48.722;9.362;2022-11-15T16:39:29;9.20;99.90
46590;DHT22;32313;48.722;9.362;2022-11-15T16:41:58;9.20;99.90
46590;DHT22;32313;48.722;9.362;2022-11-15T16:44:25;9.20;99.90
46590;DHT22;32313;48.722;9.362;2022-11-15T16:46:51;9.20;99.90
46590;DHT22;32313;48.722;9.362;2022-11-15T16:49:20;9.20;99.90
46590;DHT22;32313;48.722;9.362;2022-11-15T16:51:48;9.20;99.90
46590;DHT22;32313;48.722;9.362;2022-11-15T16:54:15;9.10;99.90
46590;DHT22;32313;48.722;9.362;2022-11-15T16:56:41;9.10;99.90
46590;DHT22;32313;48.722;9.362;2022-11-15T16:59:10;9.00;99.90
46590;DHT22;32313;48.722;9.362;2022-11-15T17:01:39;9.00;99.90
46590;DHT22;32313;48.722;9.362;2022-11-15T17:04:14;9.00;99.90
46590;DHT22;32313;48.722;9.362;2022-11-15T17:06:42;9.00;99.90
46590;DHT22;32313;48.722;9.362;2022-11-15T17:09:13;9.00;99.90
46590;DHT22;32313;48.722;9.362;2022-11-15T17:11:40;9.00;99.90
46590;DHT22;32313;48.722;9.362;2022-11-15T17:14:06;9.00;99.90
46590;DHT22;32313;48.722;9.362;2022-11-15T17:16:32;9.00;99.90
46590;DHT22;32313;48.722;9.362;2022-11-15T17:18:58;8.90;99.90
46590;DHT22;32313;48.722;9.362;2022-11-15T17:21:24;8.90;99.90
46590;DHT22;32313;48.722;9.362;2022-11-15T17:23:53;8.90;99.90
46590;DHT22;32313;48.722;9.362;2022-11-15T17:26:19;8.90;99.90
46590;DHT22;32313;48.722;9.362;2022-11-15T17:28:44;8.90;99.90
46590;DHT22;32313;48.722;9.362;2022-11-15T17:31:12;9.00;99.90
46590;DHT22;32313;48.722;9.362;2022-11-15T17:33:38;9.00;99.90
46590;DHT22;32313;48.722;9.362;2022-11-15T17:36:10;9.00;99.90
46590;DHT22;32313;48.722;9.362;2022-11-15T17:38:36;9.00;99.90
46590;DHT22;32313;48.722;9.362;2022-11-15T17:41:08;9.00;99.90
46590;DHT22;32313;48.722;9.362;2022-11-15T17:43:35;8.90;99.90
46590;DHT22;32313;48.722;9.362;2022-11-15T17:46:04;8.90;99.90
46590;DHT22;32313;48.722;9.362;2022-11-15T17:48:31;8.90;99.90
46590;DHT22;32313;48.722;9.362;2022-11-15T17:51:02;9.00;99.90
46590;DHT22;32313;48.722;9.362;2022-11-15T17:53:35;9.00;99.90
46590;DHT22;32313;48.722;9.362;2022-11-15T17:56:10;9.00;99.90
46590;DHT22;32313;48.722;9.362;2022-11-15T17:58:36;9.00;99.90
46590;DHT22;32313;48.722;9.362;2022-11-15T18:01:14;9.00;99.90
46590;DHT22;32313;48.722;9.362;2022-11-15T18:03:40;9.00;99.90
46590;DHT22;32313;48.722;9.362;2022-11-15T18:06:07;9.00;99.90
46590;DHT22;32313;48.722;9.362;2022-11-15T18:08:38;9.10;99.90
46590;DHT22;32313;48.722;9.362;2022-11-15T18:11:10;9.10;99.90
46590;DHT22;32313;48.722;9.362;2022-11-15T18:13:38;9.00;99.90
46590;DHT22;32313;48.722;9.362;2022-11-15T18:16:06;9.10;99.90
46590;DHT22;32313;48.722;9.362;2022-11-15T18:18:33;9.10;99.90
46590;DHT22;32313;48.722;9.362;2022-11-15T18:21:04;9.10;99.90
46590;DHT22;32313;48.722;9.362;2022-11-15T18:23:32;9.10;99.90
46590;DHT22;32313;48.722;9.362;2022-11-15T18:25:58;9.20;99.90
46590;DHT22;32313;48.722;9.362;2022-11-15T18:28:35;9.20;99.90
46590;DHT22;32313;48.722;9.362;2022-11-15T18:31:02;9.30;99.90
46590;DHT22;32313;48.722;9.362;2022-11-15T18:33:28;9.40;99.90
46590;DHT22;32313;48.722;9.362;2022-11-15T18:36:02;9.40;99.90
46590;DHT22;32313;48.722;9.362;2022-11-15T18:38:28;9.40;99.90
46590;DHT22;32313;48.722;9.362;2022-11-15T18:41:15;9.40;99.90
46590;DHT22;32313;48.722;9.362;2022-11-15T18:43:46;9.40;99.90
46590;DHT22;32313;48.722;9.362;2022-11-15T18:46:17;9.30;99.90